sensor_id;sensor_type;location;lat;lon;timestamp;pressure;altitude;pressure_sealevel;temperature;humidity
57904;BME280;43720;47.462;19.030;2022-07-06T03:46:07;100298.44;;;18.83;77.82
57904;BME280;43720;47.462;19.030;2022-07-06T03:49:09;100309.84;;;18.86;77.79
57904;BME280;43720;47.462;19.030;2022-07-06T03:52:11;100296.66;;;18.83;77.61
57904;BME280;43720;47.462;19.030;2022-07-06T03:55:14;100294.87;;;18.84;78.25
57904;BME280;43720;47.462;19.030;2022-07-06T03:58:17;100295.53;;;18.93;77.83
57904;BME280;43720;47.462;19.030;2022-07-06T04:01:20;100294.66;;;18.93;77.45
57904;BME280;43720;47.462;19.030;2022-07-06T04:04:22;100283.09;;;18.97;77.13
57904;BME280;43720;47.462;19.030;2022-07-06T04:07:25;100287.56;;;18.93;76.98
57904;BME280;43720;47.462;19.030;2022-07-06T04:10:28;100293.09;;;18.84;77.33
57904;BME280;43720;47.462;19.030;2022-07-06T04:13:31;100287.87;;;18.79;77.64
57904;BME280;43720;47.462;19.030;2022-07-06T04:16:34;100286.91;;;18.84;77.31
57904;BME280;43720;47.462;19.030;2022-07-06T04:19:37;100287.66;;;18.90;77.83
57904;BME280;43720;47.462;19.030;2022-07-06T04:22:40;100283.19;;;18.92;77.74
57904;BME280;43720;47.462;19.030;2022-07-06T04:25:42;100289.47;;;18.88;77.58
57904;BME280;43720;47.462;19.030;2022-07-06T04:28:45;100295.47;;;18.96;77.09
57904;BME280;43720;47.462;19.030;2022-07-06T04:31:47;100299.09;;;18.92;77.80
57904;BME280;43720;47.462;19.030;2022-07-06T04:34:49;100283.72;;;19.08;77.82
57904;BME280;43720;47.462;19.030;2022-07-06T04:37:52;100292.44;;;19.15;77.49
57904;BME280;43720;47.462;19.030;2022-07-06T04:40:55;100295.34;;;19.02;76.63
57904;BME280;43720;47.462;19.030;2022-07-06T04:43:57;100290.53;;;19.20;77.11
57904;BME280;43720;47.462;19.030;2022-07-06T04:47:00;100286.84;;;19.28;76.64
57904;BME280;43720;47.462;19.030;2022-07-06T04:50:04;100293.75;;;19.34;76.90
57904;BME280;43720;47.462;19.030;2022-07-06T04:53:07;100295.31;;;19.44;74.97
57904;BME280;43720;47.462;19.030;2022-07-06T04:56:11;100299.88;;;19.38;75.21
57904;BME280;43720;47.462;19.030;2022-07-06T04:59:14;100308.09;;;19.25;75.26
57904;BME280;43720;47.462;19.030;2022-07-06T05:02:17;100300.63;;;19.43;75.04
57904;BME280;43720;47.462;19.030;2022-07-06T05:05:20;100299.56;;;19.51;74.54
57904;BME280;43720;47.462;19.030;2022-07-06T05:08:23;100296.00;;;19.52;73.92
57904;BME280;43720;47.462;19.030;2022-07-06T05:11:27;100288.72;;;19.61;73.77
57904;BME280;43720;47.462;19.030;2022-07-06T05:14:30;100303.69;;;19.65;73.24
57904;BME280;43720;47.462;19.030;2022-07-06T05:17:33;100297.53;;;19.63;73.43
57904;BME280;43720;47.462;19.030;2022-07-06T05:20:35;100309.78;;;19.68;73.65
57904;BME280;43720;47.462;19.030;2022-07-06T05:23:39;100311.19;;;19.83;72.65
57904;BME280;43720;47.462;19.030;2022-07-06T05:26:42;100318.09;;;19.90;72.64
57904;BME280;43720;47.462;19.030;2022-07-06T05:29:44;100322.97;;;20.07;71.79
57904;BME280;43720;47.462;19.030;2022-07-06T05:32:47;100316.34;;;20.23;71.68
57904;BME280;43720;47.462;19.030;2022-07-06T05:35:49;100315.41;;;20.26;70.24
57904;BME280;43720;47.462;19.030;2022-07-06T05:38:54;100310.91;;;20.28;69.91
57904;BME280;43720;47.462;19.030;2022-07-06T05:41:57;100322.13;;;20.39;69.75
57904;BME280;43720;47.462;19.030;2022-07-06T05:44:59;100320.09;;;20.50;69.67
57904;BME280;43720;47.462;19.030;2022-07-06T05:48:02;100323.59;;;20.52;69.04
57904;BME280;43720;47.462;19.030;2022-07-06T05:51:24;100330.44;;;20.61;69.08
57904;BME280;43720;47.462;19.030;2022-07-06T05:54:26;100338.91;;;20.75;69.03
57904;BME280;43720;47.462;19.030;2022-07-06T05:57:29;100347.97;;;20.98;68.28
57904;BME280;43720;47.462;19.030;2022-07-06T06:00:31;100344.59;;;20.93;67.93
57904;BME280;43720;47.462;19.030;2022-07-06T06:03:34;100348.91;;;20.97;67.98
57904;BME280;43720;47.462;19.030;2022-07-06T06:06:37;100360.88;;;21.12;67.66
57904;BME280;43720;47.462;19.030;2022-07-06T06:09:39;100351.91;;;21.16;66.35
57904;BME280;43720;47.462;19.030;2022-07-06T06:12:44;100359.81;;;21.17;67.05
57904;BME280;43720;47.462;19.030;2022-07-06T06:15:46;100355.34;;;21.18;66.79
57904;BME280;43720;47.462;19.030;2022-07-06T06:18:49;100365.09;;;21.19;67.36
57904;BME280;43720;47.462;19.030;2022-07-06T06:21:51;100366.69;;;21.24;66.12
57904;BME280;43720;47.462;19.030;2022-07-06T06:24:54;100367.22;;;21.37;66.59
57904;BME280;43720;47.462;19.030;2022-07-06T06:27:56;100363.81;;;21.32;65.75
57904;BME280;43720;47.462;19.030;2022-07-06T06:30:59;100364.81;;;21.28;65.91
57904;BME280;43720;47.462;19.030;2022-07-06T06:34:01;100363.44;;;21.15;66.00
57904;BME280;43720;47.462;19.030;2022-07-06T06:37:04;100359.41;;;21.31;66.25
57904;BME280;43720;47.462;19.030;2022-07-06T06:40:07;100362.41;;;21.50;65.80
57904;BME280;43720;47.462;19.030;2022-07-06T06:43:10;100367.03;;;21.73;65.91
57904;BME280;43720;47.462;19.030;2022-07-06T06:46:12;100358.81;;;21.81;63.43
57904;BME280;43720;47.462;19.030;2022-07-06T06:49:15;100362.19;;;21.86;63.00
57904;BME280;43720;47.462;19.030;2022-07-06T06:52:18;100361.34;;;21.84;62.94
57904;BME280;43720;47.462;19.030;2022-07-06T06:55:40;100368.34;;;21.88;62.86
57904;BME280;43720;47.462;19.030;2022-07-06T06:58:43;100379.47;;;21.99;63.17
57904;BME280;43720;47.462;19.030;2022-07-06T07:02:05;100386.16;;;22.12;63.66
57904;BME280;43720;47.462;19.030;2022-07-06T07:05:08;100383.03;;;22.28;62.42
57904;BME280;43720;47.462;19.030;2022-07-06T07:08:10;100374.94;;;22.31;62.46
57904;BME280;43720;47.462;19.030;2022-07-06T07:11:13;100370.84;;;22.45;61.59
57904;BME280;43720;47.462;19.030;2022-07-06T07:14:15;100370.97;;;22.67;60.48
57904;BME280;43720;47.462;19.030;2022-07-06T07:17:17;100381.97;;;22.58;60.84
57904;BME280;43720;47.462;19.030;2022-07-06T07:20:20;100382.87;;;22.57;61.33
57904;BME280;43720;47.462;19.030;2022-07-06T07:23:22;100374.78;;;22.60;61.16
57904;BME280;43720;47.462;19.030;2022-07-06T07:26:24;100381.28;;;22.77;59.66
57904;BME280;43720;47.462;19.030;2022-07-06T07:29:30;100375.66;;;22.86;59.71
57904;BME280;43720;47.462;19.030;2022-07-06T07:32:33;100377.41;;;23.12;59.99
57904;BME280;43720;47.462;19.030;2022-07-06T07:35:36;100386.78;;;23.22;59.48
57904;BME280;43720;47.462;19.030;2022-07-06T07:38:46;100389.72;;;23.38;57.55
57904;BME280;43720;47.462;19.030;2022-07-06T07:41:48;100395.12;;;23.36;57.06
57904;BME280;43720;47.462;19.030;2022-07-06T07:44:52;100395.94;;;23.38;58.42
57904;BME280;43720;47.462;19.030;2022-07-06T07:47:54;100400.06;;;23.47;57.92
57904;BME280;43720;47.462;19.030;2022-07-06T07:50:57;100403.44;;;23.52;57.82
57904;BME280;43720;47.462;19.030;2022-07-06T07:53:59;100390.84;;;23.56;56.26
57904;BME280;43720;47.462;19.030;2022-07-06T07:57:01;100397.22;;;23.52;56.20
57904;BME280;43720;47.462;19.030;2022-07-06T08:00:04;100392.81;;;23.51;56.85
57904;BME280;43720;47.462;19.030;2022-07-06T08:03:12;100400.47;;;23.60;56.87
57904;BME280;43720;47.462;19.030;2022-07-06T08:06:14;100395.81;;;23.65;55.16
57904;BME280;43720;47.462;19.030;2022-07-06T08:09:16;100393.50;;;23.56;55.52
57904;BME280;43720;47.462;19.030;2022-07-06T08:12:20;100408.66;;;23.79;55.72
57904;BME280;43720;47.462;19.030;2022-07-06T08:15:22;100395.56;;;23.95;54.45
57904;BME280;43720;47.462;19.030;2022-07-06T08:18:24;100408.22;;;24.11;53.93
57904;BME280;43720;47.462;19.030;2022-07-06T08:21:27;100405.41;;;24.14;54.02
57904;BME280;43720;47.462;19.030;2022-07-06T08:24:29;100403.88;;;24.09;53.31
57904;BME280;43720;47.462;19.030;2022-07-06T08:27:31;100415.00;;;24.20;54.82
57904;BME280;43720;47.462;19.030;2022-07-06T08:30:34;100415.28;;;24.34;52.79
57904;BME280;43720;47.462;19.030;2022-07-06T08:33:36;100415.28;;;24.56;52.65
57904;BME280;43720;47.462;19.030;2022-07-06T08:36:39;100413.25;;;24.61;51.96
57904;BME280;43720;47.462;19.030;2022-07-06T08:39:41;100409.06;;;24.76;53.34
57904;BME280;43720;47.462;19.030;2022-07-06T08:42:44;100417.81;;;25.00;51.84
57904;BME280;43720;47.462;19.030;2022-07-06T08:45:50;100412.47;;;25.21;50.36
57904;BME280;43720;47.462;19.030;2022-07-06T08:48:55;100424.91;;;25.22;50.68
57904;BME280;43720;47.462;19.030;2022-07-06T08:51:58;100418.44;;;24.86;49.94
57904;BME280;43720;47.462;19.030;2022-07-06T08:55:02;100417.06;;;24.97;51.10
57904;BME280;43720;47.462;19.030;2022-07-06T08:58:04;100415.19;;;25.19;49.90
57904;BME280;43720;47.462;19.030;2022-07-06T09:01:10;100422.41;;;24.97;50.18
57904;BME280;43720;47.462;19.030;2022-07-06T09:04:16;100412.91;;;24.89;49.76
57904;BME280;43720;47.462;19.030;2022-07-06T09:07:19;100412.97;;;25.10;49.47
57904;BME280;43720;47.462;19.030;2022-07-06T09:10:41;100422.44;;;25.36;48.85
57904;BME280;43720;47.462;19.030;2022-07-06T09:13:44;100409.31;;;25.50;47.62
57904;BME280;43720;47.462;19.030;2022-07-06T09:16:48;100406.41;;;25.55;48.36
57904;BME280;43720;47.462;19.030;2022-07-06T09:19:57;100404.69;;;25.73;46.52
57904;BME280;43720;47.462;19.030;2022-07-06T09:23:04;100410.91;;;25.92;45.63
57904;BME280;43720;47.462;19.030;2022-07-06T09:26:06;100408.94;;;25.58;45.53
57904;BME280;43720;47.462;19.030;2022-07-06T09:29:10;100401.84;;;25.57;46.77
57904;BME280;43720;47.462;19.030;2022-07-06T09:32:19;100401.19;;;25.90;46.23
57904;BME280;43720;47.462;19.030;2022-07-06T09:35:22;100397.88;;;25.84;45.91
57904;BME280;43720;47.462;19.030;2022-07-06T09:38:25;100399.47;;;25.89;45.59
57904;BME280;43720;47.462;19.030;2022-07-06T09:41:32;100396.78;;;26.25;45.95
57904;BME280;43720;47.462;19.030;2022-07-06T09:44:36;100410.91;;;26.28;44.76
57904;BME280;43720;47.462;19.030;2022-07-06T09:47:39;100406.56;;;26.26;45.31
57904;BME280;43720;47.462;19.030;2022-07-06T09:50:49;100406.53;;;26.45;45.32
57904;BME280;43720;47.462;19.030;2022-07-06T09:53:52;100409.78;;;26.32;44.74
57904;BME280;43720;47.462;19.030;2022-07-06T09:56:56;100419.75;;;26.30;44.71
57904;BME280;43720;47.462;19.030;2022-07-06T09:59:58;100409.41;;;26.40;44.07
57904;BME280;43720;47.462;19.030;2022-07-06T10:03:01;100403.84;;;26.45;42.43
57904;BME280;43720;47.462;19.030;2022-07-06T10:06:04;100405.91;;;26.57;42.98
57904;BME280;43720;47.462;19.030;2022-07-06T10:09:08;100405.28;;;26.69;41.65
57904;BME280;43720;47.462;19.030;2022-07-06T10:12:16;100406.72;;;27.10;43.20
57904;BME280;43720;47.462;19.030;2022-07-06T10:15:21;100405.56;;;27.15;42.05
57904;BME280;43720;47.462;19.030;2022-07-06T10:18:24;100402.97;;;26.96;40.55
57904;BME280;43720;47.462;19.030;2022-07-06T10:21:28;100404.62;;;26.81;39.94
57904;BME280;43720;47.462;19.030;2022-07-06T10:24:31;100408.78;;;26.87;40.57
57904;BME280;43720;47.462;19.030;2022-07-06T10:27:36;100402.78;;;27.17;39.92
57904;BME280;43720;47.462;19.030;2022-07-06T10:30:41;100393.56;;;27.38;38.49
57904;BME280;43720;47.462;19.030;2022-07-06T10:33:44;100400.13;;;27.82;39.24
57904;BME280;43720;47.462;19.030;2022-07-06T10:36:51;100402.28;;;27.75;37.75
57904;BME280;43720;47.462;19.030;2022-07-06T10:39:55;100403.22;;;28.06;38.73
57904;BME280;43720;47.462;19.030;2022-07-06T10:43:16;100407.84;;;28.03;37.02
57904;BME280;43720;47.462;19.030;2022-07-06T10:46:20;100409.72;;;27.54;37.70
57904;BME280;43720;47.462;19.030;2022-07-06T10:49:24;100405.31;;;27.20;36.65
57904;BME280;43720;47.462;19.030;2022-07-06T10:52:57;100399.28;;;27.32;37.48
57904;BME280;43720;47.462;19.030;2022-07-06T10:56:05;100405.94;;;27.41;36.84
57904;BME280;43720;47.462;19.030;2022-07-06T10:59:09;100405.56;;;27.80;34.75
57904;BME280;43720;47.462;19.030;2022-07-06T11:05:39;100399.41;;;28.10;34.15
57904;BME280;43720;47.462;19.030;2022-07-06T11:09:09;100409.63;;;28.03;35.08
57904;BME280;43720;47.462;19.030;2022-07-06T11:12:16;100394.78;;;28.27;33.62
57904;BME280;43720;47.462;19.030;2022-07-06T11:15:46;100392.13;;;28.58;31.44
57904;BME280;43720;47.462;19.030;2022-07-06T11:18:58;100402.44;;;28.80;32.60
57904;BME280;43720;47.462;19.030;2022-07-06T11:22:06;100392.13;;;29.59;30.36
57904;BME280;43720;47.462;19.030;2022-07-06T11:25:10;100397.00;;;30.75;30.68
57904;BME280;43720;47.462;19.030;2022-07-06T11:28:12;100396.34;;;30.84;27.95
57904;BME280;43720;47.462;19.030;2022-07-06T11:31:16;100390.31;;;31.06;28.87
57904;BME280;43720;47.462;19.030;2022-07-06T11:34:21;100400.66;;;31.51;26.95
57904;BME280;43720;47.462;19.030;2022-07-06T11:37:24;100393.09;;;32.87;24.98
57904;BME280;43720;47.462;19.030;2022-07-06T11:40:27;100381.41;;;32.86;24.29
57904;BME280;43720;47.462;19.030;2022-07-06T11:43:31;100395.12;;;33.30;23.87
57904;BME280;43720;47.462;19.030;2022-07-06T11:46:34;100391.94;;;33.36;23.65
57904;BME280;43720;47.462;19.030;2022-07-06T11:49:39;100404.53;;;32.68;24.75
57904;BME280;43720;47.462;19.030;2022-07-06T11:52:41;100397.19;;;32.46;24.33
57904;BME280;43720;47.462;19.030;2022-07-06T11:55:43;100382.69;;;31.99;25.05
57904;BME280;43720;47.462;19.030;2022-07-06T11:58:51;100403.75;;;32.31;24.44
57904;BME280;43720;47.462;19.030;2022-07-06T12:02:06;100406.16;;;32.47;24.59
57904;BME280;43720;47.462;19.030;2022-07-06T12:05:11;100395.94;;;32.15;25.60
57904;BME280;43720;47.462;19.030;2022-07-06T12:08:18;100408.69;;;32.13;24.28
57904;BME280;43720;47.462;19.030;2022-07-06T12:11:30;100409.19;;;31.57;25.04
57904;BME280;43720;47.462;19.030;2022-07-06T12:14:36;100413.78;;;30.66;25.83
57904;BME280;43720;47.462;19.030;2022-07-06T12:17:39;100411.72;;;29.76;27.53
57904;BME280;43720;47.462;19.030;2022-07-06T12:20:45;100413.59;;;29.88;27.83
57904;BME280;43720;47.462;19.030;2022-07-06T12:23:49;100413.16;;;30.35;26.17
57904;BME280;43720;47.462;19.030;2022-07-06T12:26:53;100417.03;;;29.63;26.80
57904;BME280;43720;47.462;19.030;2022-07-06T12:30:11;100404.94;;;29.97;26.57
57904;BME280;43720;47.462;19.030;2022-07-06T12:33:15;100403.63;;;30.69;26.57
57904;BME280;43720;47.462;19.030;2022-07-06T12:36:17;100410.22;;;30.65;25.82
57904;BME280;43720;47.462;19.030;2022-07-06T12:39:21;100396.59;;;29.73;27.17
57904;BME280;43720;47.462;19.030;2022-07-06T12:42:24;100408.88;;;28.91;27.97
57904;BME280;43720;47.462;19.030;2022-07-06T12:45:30;100401.06;;;29.17;28.07
57904;BME280;43720;47.462;19.030;2022-07-06T12:48:49;100389.00;;;30.07;27.14
57904;BME280;43720;47.462;19.030;2022-07-06T12:52:12;100396.97;;;30.35;25.22
57904;BME280;43720;47.462;19.030;2022-07-06T12:55:14;100404.38;;;31.74;24.08
57904;BME280;43720;47.462;19.030;2022-07-06T12:58:20;100392.16;;;31.31;22.29
57904;BME280;43720;47.462;19.030;2022-07-06T13:01:22;100391.62;;;32.83;21.19
57904;BME280;43720;47.462;19.030;2022-07-06T13:04:26;100408.94;;;32.34;21.84
57904;BME280;43720;47.462;19.030;2022-07-06T13:07:30;100413.56;;;30.69;23.14
57904;BME280;43720;47.462;19.030;2022-07-06T13:10:39;100398.44;;;29.58;24.53
57904;BME280;43720;47.462;19.030;2022-07-06T13:13:44;100394.06;;;30.11;23.81
57904;BME280;43720;47.462;19.030;2022-07-06T13:16:47;100400.28;;;32.05;22.60
57904;BME280;43720;47.462;19.030;2022-07-06T13:19:50;100398.19;;;32.45;21.03
57904;BME280;43720;47.462;19.030;2022-07-06T13:22:52;100389.66;;;30.77;23.52
57904;BME280;43720;47.462;19.030;2022-07-06T13:25:54;100395.88;;;29.98;24.73
57904;BME280;43720;47.462;19.030;2022-07-06T13:28:57;100400.56;;;29.82;25.54
57904;BME280;43720;47.462;19.030;2022-07-06T13:31:59;100398.66;;;29.96;25.39
57904;BME280;43720;47.462;19.030;2022-07-06T13:35:02;100392.66;;;30.06;25.20
57904;BME280;43720;47.462;19.030;2022-07-06T13:38:04;100401.47;;;29.95;25.90
57904;BME280;43720;47.462;19.030;2022-07-06T13:41:10;100394.31;;;29.67;25.61
57904;BME280;43720;47.462;19.030;2022-07-06T13:44:13;100407.75;;;30.08;26.58
57904;BME280;43720;47.462;19.030;2022-07-06T13:47:16;100402.34;;;30.23;27.29
57904;BME280;43720;47.462;19.030;2022-07-06T13:50:18;100400.75;;;29.79;27.59
57904;BME280;43720;47.462;19.030;2022-07-06T13:53:21;100396.41;;;30.17;27.43
57904;BME280;43720;47.462;19.030;2022-07-06T13:56:23;100401.41;;;29.82;27.63
57904;BME280;43720;47.462;19.030;2022-07-06T13:59:26;100398.84;;;29.66;28.63
57904;BME280;43720;47.462;19.030;2022-07-06T14:02:28;100413.59;;;29.88;28.19
57904;BME280;43720;47.462;19.030;2022-07-06T14:05:30;100410.47;;;29.53;27.61
57904;BME280;43720;47.462;19.030;2022-07-06T14:08:34;100413.25;;;29.80;27.98
57904;BME280;43720;47.462;19.030;2022-07-06T14:11:36;100400.84;;;29.34;27.39
57904;BME280;43720;47.462;19.030;2022-07-06T14:14:38;100406.06;;;29.52;28.09
57904;BME280;43720;47.462;19.030;2022-07-06T14:17:41;100402.47;;;29.80;28.50
57904;BME280;43720;47.462;19.030;2022-07-06T14:20:44;100401.56;;;29.66;27.61
57904;BME280;43720;47.462;19.030;2022-07-06T14:23:46;100406.25;;;29.34;26.67
57904;BME280;43720;47.462;19.030;2022-07-06T14:26:50;100398.84;;;29.66;27.71
57904;BME280;43720;47.462;19.030;2022-07-06T14:29:52;100402.28;;;29.68;28.04
57904;BME280;43720;47.462;19.030;2022-07-06T14:32:55;100399.81;;;29.51;27.72
57904;BME280;43720;47.462;19.030;2022-07-06T14:35:57;100401.56;;;29.66;28.07
57904;BME280;43720;47.462;19.030;2022-07-06T14:39:00;100398.88;;;29.23;27.44
57904;BME280;43720;47.462;19.030;2022-07-06T14:42:03;100403.63;;;28.90;27.46
57904;BME280;43720;47.462;19.030;2022-07-06T14:45:06;100397.91;;;29.24;28.40
57904;BME280;43720;47.462;19.030;2022-07-06T14:48:09;100399.81;;;29.51;27.85
57904;BME280;43720;47.462;19.030;2022-07-06T14:51:12;100388.25;;;29.63;27.00
57904;BME280;43720;47.462;19.030;2022-07-06T14:54:14;100390.78;;;29.66;26.52
57904;BME280;43720;47.462;19.030;2022-07-06T14:57:16;100404.97;;;29.83;25.89
57904;BME280;43720;47.462;19.030;2022-07-06T15:00:19;100401.69;;;30.05;25.64
57904;BME280;43720;47.462;19.030;2022-07-06T15:03:21;100395.38;;;30.33;25.66
57904;BME280;43720;47.462;19.030;2022-07-06T15:06:23;100398.53;;;30.92;24.55
57904;BME280;43720;47.462;19.030;2022-07-06T15:09:45;100407.00;;;31.62;23.54
57904;BME280;43720;47.462;19.030;2022-07-06T15:12:48;100392.53;;;32.00;22.15
57904;BME280;43720;47.462;19.030;2022-07-06T15:15:50;100420.13;;;31.56;22.21
57904;BME280;43720;47.462;19.030;2022-07-06T15:19:00;100409.72;;;30.86;23.17
57904;BME280;43720;47.462;19.030;2022-07-06T15:22:02;100400.88;;;30.84;22.25
57904;BME280;43720;47.462;19.030;2022-07-06T15:25:05;100399.81;;;30.86;22.53
57904;BME280;43720;47.462;19.030;2022-07-06T15:28:08;100414.59;;;30.93;22.32
57904;BME280;43720;47.462;19.030;2022-07-06T15:31:10;100409.09;;;30.42;23.07
57904;BME280;43720;47.462;19.030;2022-07-06T15:34:12;100411.53;;;29.64;23.79
57904;BME280;43720;47.462;19.030;2022-07-06T15:37:15;100410.22;;;29.43;24.58
57904;BME280;43720;47.462;19.030;2022-07-06T15:40:17;100416.16;;;29.48;24.63
57904;BME280;43720;47.462;19.030;2022-07-06T15:43:25;100406.66;;;29.28;25.02
